Time;durP1;ratioP1;P1;durP2;ratioP2;P2;SDS_P1;SDS_P2;PMS_P1;PMS_P2;Temp;Humidity;BMP_temperature;BMP_pressure;BME280_temperature;BME280_humidity;BME280_pressure;Samples;Min_cycle;Max_cycle;Signal;HPM_P1;HPM_P2
2023/03/18 00:02:07;;;;;;;7.75;2.40;;;;;;;12.57;41.40;98469.69;5093982;28;20024;-48
2023/03/18 00:04:33;;;;;;;6.93;2.58;;;;;;;12.58;40.96;98481.03;5075668;28;20489;-48
2023/03/18 00:06:59;;;;;;;6.30;2.60;;;;;;;12.52;41.18;98479.28;5092932;28;20020;-48
2023/03/18 00:09:25;;;;;;;6.95;2.60;;;;;;;12.49;41.63;98482.31;5094062;28;20417;-49
2023/03/18 00:11:52;;;;;;;6.63;2.92;;;;;;;12.47;41.33;98479.91;5075469;28;20030;-48
2023/03/18 00:14:19;;;;;;;11.15;3.97;;;;;;;12.50;42.12;98476.84;5093934;28;20020;-48
2023/03/18 00:16:45;;;;;;;14.35;3.35;;;;;;;12.58;41.82;98488.94;5093837;28;20024;-48
2023/03/18 00:19:11;;;;;;;8.98;2.53;;;;;;;12.57;41.69;98487.31;5093581;28;20503;-48
2023/03/18 00:21:37;;;;;;;7.85;2.80;;;;;;;12.56;41.58;98486.50;5093552;28;20047;-48
2023/03/18 00:24:03;;;;;;;7.25;3.20;;;;;;;12.52;42.06;98480.06;5075344;28;20485;-48
2023/03/18 00:26:29;;;;;;;6.50;3.28;;;;;;;12.51;42.34;98481.09;5058648;28;20036;-49
2023/03/18 00:28:57;;;;;;;11.02;4.22;;;;;;;12.66;42.14;98472.06;5093644;28;20028;-48
2023/03/18 00:31:24;;;;;;;7.90;3.92;;;;;;;12.81;41.45;98472.47;5058583;28;20066;-49
2023/03/18 00:33:50;;;;;;;7.20;3.47;;;;;;;12.81;41.73;98467.22;5075184;28;20016;-49
2023/03/18 00:36:17;;;;;;;10.32;3.80;;;;;;;12.78;42.03;98468.47;5093279;28;20107;-48
2023/03/18 00:38:45;;;;;;;9.05;3.30;;;;;;;12.83;41.77;98461.72;5074897;28;20020;-49
2023/03/18 00:41:14;;;;;;;6.40;2.88;;;;;;;12.86;41.63;98462.09;5093081;28;20047;-48
2023/03/18 00:43:51;;;;;;;5.25;2.72;;;;;;;12.73;41.46;98467.50;5074877;28;20021;-49
2023/03/18 00:46:27;;;;;;;9.43;3.15;;;;;;;12.52;42.12;98472.19;5093194;28;20024;-48
2023/03/18 00:48:57;;;;;;;9.57;3.80;;;;;;;12.50;43.05;98468.97;5092841;28;20107;-49
2023/03/18 00:51:25;;;;;;;11.88;4.15;;;;;;;12.57;42.74;98469.69;5093045;28;20027;-48
2023/03/18 00:53:54;;;;;;;6.28;2.80;;;;;;;12.68;42.87;98462.09;5092982;28;20394;-48
2023/03/18 00:56:22;;;;;;;7.13;3.17;;;;;;;12.73;42.31;98460.41;5074914;28;20062;-48
2023/03/18 00:58:49;;;;;;;10.55;3.33;;;;;;;12.75;42.27;98462.81;5092724;28;20054;-48
2023/03/18 01:01:16;;;;;;;7.45;2.88;;;;;;;12.77;42.38;98455.50;5092781;28;20074;-48
2023/03/18 01:03:42;;;;;;;5.82;2.97;;;;;;;12.80;42.54;98452.44;5092774;28;20102;-48
2023/03/18 01:06:13;;;;;;;10.30;3.28;;;;;;;12.84;42.42;98456.25;5093000;28;20452;-48
2023/03/18 01:08:40;;;;;;;9.68;2.83;;;;;;;12.88;41.93;98457.41;5074407;28;20412;-49
2023/03/18 01:11:07;;;;;;;8.70;2.35;;;;;;;12.90;42.28;98459.84;5074437;28;20027;-48
2023/03/18 01:13:34;;;;;;;9.07;2.45;;;;;;;12.81;42.34;98456.66;5092838;28;20099;-48
2023/03/18 01:16:02;;;;;;;12.60;3.80;;;;;;;12.66;42.90;98461.53;5074287;28;20055;-48
2023/03/18 01:18:28;;;;;;;7.50;2.45;;;;;;;12.68;42.56;98459.47;5092313;28;20078;-48
2023/03/18 01:20:54;;;;;;;5.30;2.53;;;;;;;12.59;42.92;98453.66;5092400;28;20025;-48
2023/03/18 01:23:20;;;;;;;6.30;2.50;;;;;;;12.66;43.03;98448.34;5092374;28;20028;-48
2023/03/18 01:25:46;;;;;;;5.97;2.30;;;;;;;12.75;42.73;98449.66;5092369;28;20069;-48
2023/03/18 01:28:12;;;;;;;7.55;3.05;;;;;;;12.48;42.95;98449.94;5074222;28;20031;-48
2023/03/18 01:30:38;;;;;;;7.50;2.85;;;;;;;12.46;43.49;98446.72;5074049;28;20024;-48
2023/03/18 01:33:07;;;;;;;13.68;3.20;;;;;;;12.51;43.04;98440.81;5092309;28;20032;-48
2023/03/18 01:35:36;;;;;;;8.45;2.78;;;;;;;12.46;43.10;98444.09;5092212;28;20020;-48
2023/03/18 01:38:04;;;;;;;14.10;3.55;;;;;;;12.39;43.30;98444.16;5092182;28;20453;-48
2023/03/18 01:40:35;;;;;;;10.18;3.00;;;;;;;12.37;43.39;98437.50;5092130;28;20515;-48
2023/03/18 01:43:13;;;;;;;20.45;3.85;;;;;;;12.18;43.69;98440.09;5074032;28;20040;-48
2023/03/18 01:45:44;;;;;;;7.65;2.70;;;;;;;12.01;44.34;98444.28;5073966;28;20032;-48
2023/03/18 01:48:15;;;;;;;11.43;2.97;;;;;;;11.83;44.77;98452.09;5092124;28;20028;-48
2023/03/18 01:50:43;;;;;;;9.98;2.47;;;;;;;11.79;44.86;98449.09;5091837;28;20552;-49
2023/03/18 01:53:12;;;;;;;6.55;3.17;;;;;;;11.72;44.47;98443.09;5091979;28;20449;-49
2023/03/18 01:55:39;;;;;;;5.15;2.22;;;;;;;11.57;44.72;98449.47;5091966;28;20051;-48
2023/03/18 01:58:14;;;;;;;5.50;2.60;;;;;;;11.40;45.35;98448.34;5091904;28;20071;-51
2023/03/18 02:00:44;;;;;;;9.57;2.92;;;;;;;11.40;45.78;98449.16;5092177;28;20043;-51
2023/03/18 02:03:11;;;;;;;9.55;2.70;;;;;;;11.38;45.49;98438.03;5091882;28;20489;-51
2023/03/18 02:05:39;;;;;;;10.43;3.80;;;;;;;11.22;46.22;98433.28;5091824;28;20099;-51
2023/03/18 02:08:05;;;;;;;10.55;3.60;;;;;;;11.20;46.44;98427.44;5091890;28;20012;-51
2023/03/18 02:10:31;;;;;;;7.70;3.80;;;;;;;11.25;46.48;98424.19;5091816;28;20024;-51
2023/03/18 02:13:04;;;;;;;9.15;4.25;;;;;;;11.23;47.05;98420.97;5073644;28;20032;-51
2023/03/18 02:15:32;;;;;;;11.05;5.75;;;;;;;11.32;46.67;98417.06;5073653;28;20056;-51
2023/03/18 02:17:58;;;;;;;18.88;4.15;;;;;;;11.48;46.67;98418.38;5091634;28;20074;-51
2023/03/18 02:21:06;;;;;;;12.77;4.03;;;;;;;11.66;46.04;98415.03;5091642;28;20447;-51
2023/03/18 02:24:08;;;;;;;5.88;3.03;;;;;;;11.72;45.86;98414.19;5009522;28;20145;-51
2023/03/18 02:26:45;;;;;;;9.65;3.55;;;;;;;11.56;45.80;98418.13;5009566;28;20033;-51
2023/03/18 02:29:14;;;;;;;12.05;4.00;;;;;;;11.46;45.92;98412.53;5009554;28;20038;-51
2023/03/18 02:31:42;;;;;;;11.57;4.07;;;;;;;11.49;45.95;98422.63;5012719;28;20037;-51
2023/03/18 02:34:09;;;;;;;7.15;3.58;;;;;;;11.49;45.73;98420.00;5013462;28;20042;-51
2023/03/18 02:36:36;;;;;;;8.75;3.47;;;;;;;11.38;46.20;98409.16;5013335;28;20033;-51
2023/03/18 02:39:03;;;;;;;9.93;3.60;;;;;;;11.32;46.27;98411.81;5013259;28;20026;-51
2023/03/18 02:41:32;;;;;;;11.30;3.70;;;;;;;11.17;46.67;98407.66;5013317;28;20069;-51
2023/03/18 02:43:59;;;;;;;8.90;3.53;;;;;;;11.05;46.95;98411.97;5013242;28;20053;-51
2023/03/18 02:46:46;;;;;;;5.43;2.92;;;;;;;10.83;47.36;98416.72;5013230;28;20036;-51
2023/03/18 02:49:13;;;;;;;12.63;3.65;;;;;;;10.61;47.76;98418.03;5006749;28;20467;-50
2023/03/18 02:51:40;;;;;;;10.15;2.72;;;;;;;10.43;48.24;98426.53;4974115;28;20035;-51
2023/03/18 02:54:15;;;;;;;6.85;2.60;;;;;;;10.18;48.82;98422.72;4974149;28;20127;-51
2023/03/18 02:56:42;;;;;;;8.82;3.70;;;;;;;10.00;49.61;98417.31;4974122;28;20058;-51
2023/03/18 02:59:09;;;;;;;7.00;3.67;;;;;;;9.91;50.06;98414.06;4976119;28;20451;-51
2023/03/18 03:01:35;;;;;;;8.25;3.67;;;;;;;9.87;50.44;98412.06;5032372;28;20017;-51
2023/03/18 03:04:01;;;;;;;8.68;3.10;;;;;;;9.89;50.56;98408.22;5054926;28;20036;-51
2023/03/18 03:06:27;;;;;;;11.77;3.78;;;;;;;9.86;50.73;98405.19;5054853;28;20082;-51
2023/03/18 03:08:53;;;;;;;8.15;3.50;;;;;;;9.78;50.85;98400.97;5054848;28;20425;-51
2023/03/18 03:11:19;;;;;;;8.80;3.78;;;;;;;9.65;50.90;98404.38;5054747;28;20097;-51
2023/03/18 03:13:45;;;;;;;11.07;2.90;;;;;;;9.49;51.30;98410.03;5054853;28;20067;-50
2023/03/18 03:16:13;;;;;;;9.55;2.92;;;;;;;9.40;51.88;98410.22;5054684;28;20021;-51
2023/03/18 03:18:39;;;;;;;6.60;3.33;;;;;;;9.31;51.77;98416.63;5054525;28;20115;-51
2023/03/18 03:21:06;;;;;;;6.75;3.38;;;;;;;9.29;52.41;98413.41;5054850;28;20079;-51
2023/03/18 03:23:32;;;;;;;10.80;3.53;;;;;;;9.26;52.28;98410.41;5054377;28;20057;-51
2023/03/18 03:25:58;;;;;;;6.22;2.83;;;;;;;9.18;52.29;98409.56;5054498;28;20053;-50
2023/03/18 03:28:23;;;;;;;6.68;3.35;;;;;;;9.16;52.54;98416.00;5054665;28;20029;-50
2023/03/18 03:30:49;;;;;;;10.63;4.05;;;;;;;9.14;53.25;98421.44;5036524;28;20025;-50
2023/03/18 03:33:16;;;;;;;10.52;4.07;;;;;;;9.18;53.12;98419.25;5054305;28;20025;-50
2023/03/18 03:35:41;;;;;;;7.65;4.18;;;;;;;9.27;52.64;98420.66;5036399;28;20128;-50
2023/03/18 03:38:08;;;;;;;12.18;4.18;;;;;;;9.26;52.74;98423.50;5054282;28;20516;-50
2023/03/18 03:40:34;;;;;;;10.75;4.10;;;;;;;9.18;52.57;98419.25;5036295;28;20094;-50
2023/03/18 03:43:00;;;;;;;11.90;4.05;;;;;;;9.16;53.33;98422.06;5052899;28;20025;-51
2023/03/18 03:45:26;;;;;;;12.80;4.70;;;;;;;9.23;52.86;98427.28;5036230;28;20064;-51
2023/03/18 03:47:52;;;;;;;13.32;4.97;;;;;;;9.25;52.74;98422.66;5054092;28;20017;-50
2023/03/18 03:50:18;;;;;;;10.10;4.57;;;;;;;9.30;52.59;98428.13;5060292;28;20047;-50
2023/03/18 03:52:44;;;;;;;9.75;4.57;;;;;;;9.43;52.40;98416.84;5076113;28;20020;-51
2023/03/18 03:55:13;;;;;;;15.13;5.28;;;;;;;9.62;52.08;98427.56;5094207;28;20489;-51
2023/03/18 03:57:40;;;;;;;8.73;5.28;;;;;;;9.83;51.52;98421.34;5075887;28;20090;-50
2023/03/18 04:00:13;;;;;;;17.30;5.85;;;;;;;9.99;50.85;98418.28;5094299;28;20028;-50
2023/03/18 04:02:42;;;;;;;8.63;5.72;;;;;;;10.11;50.37;98416.66;5075886;28;20028;-51
2023/03/18 04:05:09;;;;;;;8.27;5.05;;;;;;;10.09;50.19;98410.81;5093886;28;20024;-51
2023/03/18 04:07:35;;;;;;;9.63;4.75;;;;;;;10.09;50.17;98418.69;5093846;28;20036;-51
2023/03/18 04:10:01;;;;;;;11.23;5.22;;;;;;;10.08;50.28;98421.50;5075841;28;20031;-51
2023/03/18 04:12:27;;;;;;;10.65;5.20;;;;;;;10.00;50.11;98425.16;5093874;28;20016;-51
2023/03/18 04:14:53;;;;;;;12.95;4.95;;;;;;;9.94;50.32;98415.47;5076004;28;20028;-51
2023/03/18 04:17:18;;;;;;;11.93;5.43;;;;;;;9.94;50.42;98423.31;5093570;28;20016;-51
2023/03/18 04:19:44;;;;;;;9.45;5.20;;;;;;;9.85;50.53;98414.88;5093791;28;20051;-51
2023/03/18 04:22:10;;;;;;;9.05;4.90;;;;;;;9.76;50.92;98416.09;5093841;28;20024;-50
2023/03/18 04:24:36;;;;;;;13.23;5.13;;;;;;;9.63;51.26;98413.47;5093532;28;20024;-51
2023/03/18 04:27:02;;;;;;;16.42;4.68;;;;;;;9.47;51.68;98423.31;5093574;28;20122;-51
2023/03/18 04:29:28;;;;;;;10.75;4.03;;;;;;;9.23;51.55;98426.50;5093540;28;20501;-50
2023/03/18 04:31:55;;;;;;;10.68;4.60;;;;;;;8.99;52.37;98419.00;5093398;28;20028;-50
2023/03/18 04:34:21;;;;;;;8.23;4.47;;;;;;;8.87;53.02;98430.19;5093448;28;20017;-50
2023/03/18 04:36:47;;;;;;;8.68;3.75;;;;;;;8.69;53.33;98430.72;5075270;28;20024;-50
2023/03/18 04:39:12;;;;;;;10.00;5.00;;;;;;;8.69;53.46;98425.50;5075089;28;20082;-50
2023/03/18 04:41:38;;;;;;;14.60;4.90;;;;;;;8.67;53.82;98433.56;5075173;28;20057;-50
2023/03/18 04:44:04;;;;;;;13.27;4.82;;;;;;;8.62;54.22;98428.09;5093445;28;20393;-50
2023/03/18 04:46:31;;;;;;;16.77;4.80;;;;;;;8.54;54.29;98434.28;5093188;28;20107;-50
2023/03/18 04:48:57;;;;;;;7.53;3.90;;;;;;;8.55;54.60;98432.47;5093110;28;20050;-53
2023/03/18 04:51:25;;;;;;;17.33;4.88;;;;;;;8.58;54.40;98432.09;5075007;28;20525;-50
2023/03/18 04:53:51;;;;;;;8.88;4.20;;;;;;;8.64;54.58;98422.66;5092674;28;20032;-50
2023/03/18 04:56:18;;;;;;;11.60;5.13;;;;;;;8.61;54.30;98418.63;5074863;28;20047;-50
2023/03/18 04:58:45;;;;;;;11.77;4.07;;;;;;;8.74;54.69;98420.50;5093015;28;20107;-50
2023/03/18 05:01:11;;;;;;;11.40;4.75;;;;;;;8.94;55.03;98424.00;5075138;28;20480;-50
2023/03/18 05:03:38;;;;;;;13.55;4.05;;;;;;;9.15;54.60;98430.09;5092919;28;20100;-51
2023/03/18 05:06:05;;;;;;;14.52;4.40;;;;;;;9.33;53.64;98429.53;5074697;28;20119;-50
2023/03/18 05:08:30;;;;;;;11.43;4.90;;;;;;;9.40;53.47;98418.06;5093034;28;20031;-50
2023/03/18 05:10:56;;;;;;;6.38;4.40;;;;;;;9.48;52.82;98424.16;5057878;28;20034;-50
2023/03/18 05:13:22;;;;;;;11.88;4.43;;;;;;;9.50;52.73;98416.88;5074343;28;20559;-50
2023/03/18 05:15:48;;;;;;;17.75;4.55;;;;;;;9.54;52.66;98418.09;5092823;28;20016;-50
2023/03/18 05:18:15;;;;;;;9.68;4.80;;;;;;;9.60;52.22;98418.09;5092441;28;20028;-51
2023/03/18 05:20:41;;;;;;;12.07;5.20;;;;;;;9.67;52.43;98412.84;5092433;28;20513;-50
2023/03/18 05:23:07;;;;;;;7.85;4.88;;;;;;;9.74;52.23;98413.69;5092595;28;20028;-51
2023/03/18 05:25:33;;;;;;;13.18;5.20;;;;;;;9.75;51.95;98404.78;5074252;28;20073;-51
2023/03/18 05:27:59;;;;;;;9.68;5.35;;;;;;;9.79;52.22;98411.25;5074276;28;20415;-50
2023/03/18 05:30:26;;;;;;;12.20;6.30;;;;;;;9.82;51.69;98423.16;5092435;28;20020;-50
2023/03/18 05:32:52;;;;;;;11.80;6.72;;;;;;;9.76;51.22;98422.16;5074234;28;20035;-50
2023/03/18 05:35:18;;;;;;;11.90;6.43;;;;;;;9.74;51.13;98410.25;5092488;28;20400;-50
2023/03/18 05:37:44;;;;;;;13.48;6.75;;;;;;;9.65;50.85;98414.88;5074104;28;20027;-51
2023/03/18 05:40:11;;;;;;;12.60;8.00;;;;;;;9.50;50.90;98438.66;5092256;28;20024;-51
2023/03/18 05:42:39;;;;;;;12.80;6.45;;;;;;;9.40;51.04;98427.75;5092124;28;20596;-50
2023/03/18 05:45:06;;;;;;;16.25;8.10;;;;;;;9.48;51.87;98430.19;5092188;28;20104;-50
2023/03/18 05:47:32;;;;;;;14.27;7.07;;;;;;;9.62;51.48;98428.38;5073891;28;20016;-50
2023/03/18 05:49:57;;;;;;;16.75;7.60;;;;;;;9.79;51.05;98432.22;5073599;28;20515;-50
2023/03/18 05:52:23;;;;;;;13.77;7.03;;;;;;;9.91;50.40;98436.84;5092064;28;20027;-50
2023/03/18 05:54:49;;;;;;;12.13;7.07;;;;;;;9.92;50.21;98428.78;5092044;28;20103;-50
2023/03/18 05:57:15;;;;;;;13.20;6.80;;;;;;;10.02;50.54;98433.63;5092028;28;20096;-50
2023/03/18 05:59:40;;;;;;;10.77;6.70;;;;;;;10.20;50.21;98422.50;5074046;28;20036;-50
2023/03/18 06:02:06;;;;;;;14.57;6.82;;;;;;;10.37;49.82;98418.47;5091970;28;20013;-51
2023/03/18 06:04:32;;;;;;;21.10;7.40;;;;;;;10.40;49.31;98427.75;5073308;28;20469;-50
2023/03/18 06:06:57;;;;;;;12.77;7.32;;;;;;;10.50;49.24;98428.16;5073497;28;20028;-50
2023/03/18 06:09:24;;;;;;;11.82;7.45;;;;;;;10.72;48.67;98433.91;5091806;28;20118;-50
2023/03/18 06:11:50;;;;;;;10.63;6.85;;;;;;;10.83;47.93;98432.47;5091846;28;20078;-50
2023/03/18 06:14:17;;;;;;;13.00;6.85;;;;;;;10.90;48.28;98440.31;5073622;28;20573;-50
2023/03/18 06:16:42;;;;;;;17.13;6.80;;;;;;;11.02;47.99;98436.00;5091696;28;20103;-51
2023/03/18 06:19:12;;;;;;;13.57;8.00;;;;;;;11.24;47.51;98433.09;5073746;28;20111;-50
2023/03/18 06:21:38;;;;;;;19.88;8.00;;;;;;;11.47;46.56;98428.09;5092059;28;20103;-51
2023/03/18 06:24:05;;;;;;;31.42;9.10;;;;;;;11.71;46.24;98431.78;5056881;28;20054;-50
2023/03/18 06:26:31;;;;;;;37.08;9.20;;;;;;;12.04;45.42;98438.63;5073580;28;20067;-51
2023/03/18 06:28:57;;;;;;;24.10;9.10;;;;;;;13.02;44.14;98437.00;5091680;28;20115;-51
2023/03/18 06:31:24;;;;;;;22.08;9.07;;;;;;;13.98;42.17;98431.75;5091925;28;20023;-50
2023/03/18 06:33:50;;;;;;;12.00;7.90;;;;;;;14.76;40.49;98427.13;5091670;28;20024;-51
2023/03/18 06:36:16;;;;;;;19.42;8.27;;;;;;;15.85;39.10;98423.53;5091629;28;20028;-48
2023/03/18 06:38:43;;;;;;;16.92;9.23;;;;;;;16.74;36.61;98424.50;5091572;28;20392;-49
2023/03/18 06:41:10;;;;;;;12.88;8.52;;;;;;;17.51;34.92;98422.69;5091474;28;20032;-48
2023/03/18 06:43:36;;;;;;;19.70;9.02;;;;;;;17.75;34.49;98423.16;5091606;28;20048;-49
2023/03/18 06:46:02;;;;;;;11.98;8.50;;;;;;;18.10;33.77;98422.66;5091466;28;20020;-48
2023/03/18 06:48:27;;;;;;;16.08;8.48;;;;;;;17.92;32.94;98425.72;5091464;28;20051;-49
2023/03/18 06:50:54;;;;;;;14.38;8.30;;;;;;;17.47;33.58;98429.56;5091261;28;20040;-48
2023/03/18 06:53:19;;;;;;;12.55;8.30;;;;;;;17.45;33.88;98429.00;5091444;28;20106;-48
2023/03/18 06:55:45;;;;;;;13.38;8.80;;;;;;;17.61;33.86;98425.44;5091373;28;20487;-48
2023/03/18 06:58:10;;;;;;;12.55;8.10;;;;;;;17.30;34.51;98425.13;5073121;28;20024;-49
2023/03/18 07:00:37;;;;;;;13.35;9.40;;;;;;;16.55;34.49;98427.44;5091351;28;20397;-49
2023/03/18 07:03:03;;;;;;;15.30;9.05;;;;;;;15.53;35.88;98436.47;5073370;28;20035;-49
2023/03/18 07:05:29;;;;;;;12.23;8.88;;;;;;;15.07;37.42;98441.75;5091567;28;20488;-49
2023/03/18 07:07:56;;;;;;;16.60;9.88;;;;;;;15.58;37.01;98429.44;5073215;28;20118;-49
2023/03/18 07:10:26;;;;;;;17.77;9.48;;;;;;;16.29;36.05;98428.16;5091266;28;20076;-49
2023/03/18 07:12:52;;;;;;;15.60;10.18;;;;;;;16.99;34.55;98421.38;5073130;28;20486;-49
2023/03/18 07:15:21;;;;;;;13.13;9.90;;;;;;;17.78;33.58;98425.31;5073109;28;20027;-49
2023/03/18 07:17:48;;;;;;;13.10;9.52;;;;;;;17.99;32.68;98425.47;5094247;28;20046;-49
2023/03/18 07:20:15;;;;;;;18.10;11.20;;;;;;;18.22;31.77;98426.97;5076587;28;20073;-49
2023/03/18 07:22:42;;;;;;;19.88;10.73;;;;;;;17.82;31.74;98425.59;5076612;28;20453;-48
2023/03/18 07:25:10;;;;;;;25.27;11.98;;;;;;;17.42;32.48;98426.84;5076481;28;20032;-49
2023/03/18 07:27:35;;;;;;;44.78;11.38;;;;;;;17.87;32.24;98423.81;5094706;28;20024;-49
2023/03/18 07:30:02;;;;;;;46.63;12.70;;;;;;;19.08;30.96;98425.78;5094661;28;20023;-49
2023/03/18 07:32:29;;;;;;;23.02;11.95;;;;;;;19.63;29.48;98418.16;5059816;28;20032;-49
2023/03/18 07:34:56;;;;;;;26.80;11.35;;;;;;;19.30;29.87;98415.72;5094506;28;20559;-49
2023/03/18 07:37:22;;;;;;;29.67;11.52;;;;;;;19.56;29.81;98415.75;5094461;28;20070;-48
2023/03/18 07:39:48;;;;;;;43.55;14.20;;;;;;;20.44;27.99;98411.94;5076486;28;20032;-46
2023/03/18 07:42:14;;;;;;;39.72;14.75;;;;;;;20.97;27.49;98413.34;5094418;28;20028;-46
2023/03/18 07:44:39;;;;;;;46.13;13.13;;;;;;;21.27;26.98;98413.19;5076252;28;20052;-46
2023/03/18 07:47:05;;;;;;;40.80;13.15;;;;;;;21.57;26.06;98406.06;5094346;28;20150;-46
2023/03/18 07:49:31;;;;;;;33.30;12.65;;;;;;;21.69;24.84;98405.69;5059131;28;20064;-46
2023/03/18 07:51:57;;;;;;;78.13;13.77;;;;;;;21.89;24.88;98413.53;5094309;28;20069;-46
2023/03/18 07:54:23;;;;;;;63.45;15.25;;;;;;;22.09;24.76;98419.75;5075982;28;20028;-46
2023/03/18 07:56:50;;;;;;;33.40;13.43;;;;;;;22.49;23.75;98409.75;5094092;28;20024;-46
2023/03/18 07:59:17;;;;;;;23.60;12.77;;;;;;;22.82;23.42;98405.34;5075863;28;20032;-46
2023/03/18 08:01:43;;;;;;;24.23;12.88;;;;;;;23.18;23.00;98423.63;5094088;28;20021;-46
2023/03/18 08:04:09;;;;;;;29.08;12.88;;;;;;;23.55;22.16;98413.97;5094024;28;20099;-46
2023/03/18 08:06:34;;;;;;;22.05;13.38;;;;;;;23.65;21.85;98419.16;5093925;28;20028;-46
2023/03/18 08:09:01;;;;;;;27.60;12.73;;;;;;;23.55;21.48;98423.88;5093861;28;20028;-46
2023/03/18 08:11:26;;;;;;;37.47;13.02;;;;;;;23.53;21.58;98427.63;5075903;28;20390;-46
2023/03/18 08:13:52;;;;;;;27.00;13.55;;;;;;;23.52;22.05;98425.25;5093832;28;20028;-46
2023/03/18 08:16:17;;;;;;;118.70;18.83;;;;;;;23.28;21.95;98428.84;5093693;28;20025;-46
2023/03/18 08:18:43;;;;;;;50.83;15.35;;;;;;;23.39;21.45;98434.03;5093651;28;20024;-46
2023/03/18 08:21:09;;;;;;;23.40;13.75;;;;;;;23.09;21.76;98420.00;5075397;28;20389;-46
2023/03/18 08:23:35;;;;;;;26.30;14.52;;;;;;;22.88;21.93;98436.28;5075428;28;20034;-46
2023/03/18 08:26:01;;;;;;;24.88;14.93;;;;;;;23.04;21.87;98434.25;5093582;28;20024;-46
2023/03/18 08:28:27;;;;;;;18.73;12.88;;;;;;;22.89;21.79;98434.41;5092638;28;20024;-46
2023/03/18 08:30:57;;;;;;;31.67;14.60;;;;;;;22.94;22.09;98440.50;5093460;28;20035;-46
2023/03/18 08:33:26;;;;;;;19.67;13.57;;;;;;;23.35;21.72;98433.81;5075192;28;20024;-46
2023/03/18 08:35:54;;;;;;;21.52;12.82;;;;;;;23.80;21.20;98436.88;5093340;28;20072;-46
2023/03/18 08:38:20;;;;;;;18.08;13.23;;;;;;;24.38;21.09;98437.50;5075030;28;20024;-47
2023/03/18 08:40:47;;;;;;;35.17;13.75;;;;;;;24.30;20.85;98428.25;5093293;28;20031;-47
2023/03/18 08:43:13;;;;;;;19.73;13.73;;;;;;;24.52;20.83;98425.69;5093156;28;20025;-47
2023/03/18 08:45:38;;;;;;;23.10;12.77;;;;;;;25.27;20.38;98430.88;5093098;28;20017;-47
2023/03/18 08:48:04;;;;;;;19.05;12.85;;;;;;;25.67;19.43;98431.81;5075079;28;20107;-48
2023/03/18 08:50:30;;;;;;;15.60;11.75;;;;;;;25.52;19.52;98424.13;5074672;28;20110;-47
2023/03/18 08:52:58;;;;;;;18.17;12.20;;;;;;;25.46;19.61;98441.47;5074850;28;20016;-47
2023/03/18 08:55:34;;;;;;;16.20;12.18;;;;;;;25.11;19.61;98444.63;5074784;28;20028;-47
2023/03/18 08:58:00;;;;;;;19.75;12.38;;;;;;;24.61;19.97;98449.97;5092859;28;20020;-47
2023/03/18 09:00:27;;;;;;;19.05;13.50;;;;;;;24.25;23.97;98452.50;5092891;28;20024;-47
2023/03/18 09:02:53;;;;;;;20.23;13.05;;;;;;;24.09;24.03;98455.44;5058071;28;20019;-47
2023/03/18 09:05:20;;;;;;;19.65;12.32;;;;;;;23.66;22.08;98447.56;5092785;28;20036;-46
2023/03/18 09:07:46;;;;;;;18.95;13.23;;;;;;;22.92;22.16;98445.34;5092813;28;20029;-46
2023/03/18 09:10:13;;;;;;;20.60;13.68;;;;;;;22.00;23.09;98458.88;5092687;28;20032;-46
2023/03/18 09:12:43;;;;;;;50.38;16.77;;;;;;;21.83;23.18;98457.41;5074624;28;20520;-46
2023/03/18 09:15:10;;;;;;;38.60;13.90;;;;;;;21.95;23.25;98454.34;5074348;28;20028;-46
2023/03/18 09:17:40;;;;;;;62.88;15.70;;;;;;;22.29;22.92;98450.88;5092468;28;20463;-45
2023/03/18 09:20:14;;;;;;;38.00;13.73;;;;;;;22.81;22.29;98456.47;5074308;28;20401;-46
2023/03/18 09:22:42;;;;;;;29.65;14.43;;;;;;;22.41;22.44;98455.81;5092555;28;20039;-46
2023/03/18 09:25:09;;;;;;;82.03;15.70;;;;;;;23.14;22.65;98452.06;5092391;28;20539;-46
2023/03/18 09:27:35;;;;;;;30.63;13.60;;;;;;;24.43;21.08;98454.31;5092487;28;20032;-46
2023/03/18 09:30:02;;;;;;;90.72;17.00;;;;;;;24.30;20.89;98449.72;5092269;28;20482;-47
2023/03/18 09:32:28;;;;;;;49.42;13.52;;;;;;;24.08;21.36;98447.69;5092314;28;20035;-46
2023/03/18 09:34:54;;;;;;;17.60;12.32;;;;;;;24.50;20.19;98446.66;5092322;28;20023;-47
2023/03/18 09:37:20;;;;;;;47.95;12.55;;;;;;;23.91;21.03;98453.59;5073999;28;20028;-47
2023/03/18 09:39:50;;;;;;;19.60;11.98;;;;;;;23.47;21.18;98466.31;5091999;28;20477;-47
2023/03/18 09:42:48;;;;;;;16.85;11.88;;;;;;;23.50;21.34;98462.25;5074927;28;20059;-46
2023/03/18 09:45:44;;;;;;;27.00;12.55;;;;;;;24.09;20.88;98452.75;5092150;28;20035;-47
2023/03/18 09:48:39;;;;;;;20.42;13.38;;;;;;;24.56;20.94;98460.00;5092110;28;20024;-47
2023/03/18 09:51:10;;;;;;;15.82;12.57;;;;;;;24.06;19.77;98457.91;5073846;28;20095;-47
2023/03/18 09:53:42;;;;;;;48.35;13.20;;;;;;;22.97;21.13;98459.75;5073952;28;20516;-47
2023/03/18 09:56:15;;;;;;;17.92;11.75;;;;;;;22.45;21.58;98463.00;5092003;28;20080;-47
2023/03/18 09:58:57;;;;;;;39.30;11.98;;;;;;;22.70;21.02;98463.81;5074631;28;20021;-47
2023/03/18 10:01:26;;;;;;;31.83;12.68;;;;;;;22.81;21.39;98465.28;5091922;28;20052;-47
2023/03/18 10:04:14;;;;;;;18.65;12.50;;;;;;;22.72;21.04;98449.06;5092135;28;20542;-47
2023/03/18 10:06:43;;;;;;;17.73;12.50;;;;;;;21.11;22.09;98473.06;5091862;28;20036;-47
2023/03/18 10:09:22;;;;;;;16.50;12.82;;;;;;;19.84;23.79;98477.56;5091768;28;20108;-47
2023/03/18 10:11:50;;;;;;;21.92;12.30;;;;;;;19.10;24.48;98456.38;5091896;28;20096;-47
2023/03/18 10:14:18;;;;;;;21.17;13.27;;;;;;;18.87;25.29;98467.47;5073669;28;20028;-46
2023/03/18 10:17:03;;;;;;;18.73;11.57;;;;;;;18.83;25.46;98469.03;5073627;28;20127;-47
2023/03/18 10:19:31;;;;;;;15.40;10.98;;;;;;;18.67;25.48;98468.97;5091983;28;20532;-47
2023/03/18 10:22:23;;;;;;;15.27;10.73;;;;;;;18.29;25.25;98459.41;5091724;28;20025;-47
2023/03/18 10:25:03;;;;;;;13.75;10.13;;;;;;;17.97;25.80;98462.94;5091984;28;20032;-47
2023/03/18 10:27:47;;;;;;;14.98;10.55;;;;;;;17.59;26.57;98462.03;5091783;28;20028;-47
2023/03/18 10:30:33;;;;;;;17.02;11.15;;;;;;;17.37;26.99;98491.28;5073551;28;20119;-47
2023/03/18 10:33:17;;;;;;;14.93;10.95;;;;;;;17.38;27.17;98461.03;5073521;28;20039;-46
2023/03/18 10:36:03;;;;;;;19.40;10.98;;;;;;;17.30;27.26;98480.84;5091630;28;20024;-46
2023/03/18 10:38:35;;;;;;;13.98;10.10;;;;;;;17.44;27.00;98480.47;5091591;28;20056;-47
2023/03/18 10:41:01;;;;;;;10.48;7.75;;;;;;;17.47;26.23;98479.97;5091607;28;20099;-47
2023/03/18 10:43:32;;;;;;;16.92;9.85;;;;;;;17.41;26.86;98462.41;5073434;28;20059;-47
2023/03/18 10:46:08;;;;;;;12.50;9.35;;;;;;;17.64;26.77;98458.63;5091500;28;20042;-47
2023/03/18 10:48:39;;;;;;;;;;;;;;;17.74;26.62;98475.44;5091971;28;20032;-47
2023/03/18 10:51:27;;;;;;;16.48;8.18;;;;;;;18.03;26.47;98477.84;5091728;28;19923;-46
2023/03/18 10:53:59;;;;;;;13.95;8.48;;;;;;;18.39;26.08;98464.81;5095427;28;20043;-46
2023/03/18 10:56:25;;;;;;;17.73;10.93;;;;;;;19.46;25.60;98461.00;5077065;28;20493;-47
2023/03/18 10:58:51;;;;;;;14.63;8.85;;;;;;;20.26;24.68;98457.81;5060285;28;20081;-47
2023/03/18 11:01:19;;;;;;;21.10;8.95;;;;;;;20.39;24.38;98445.81;5095139;28;20063;-47
2023/03/18 11:03:57;;;;;;;11.32;7.88;;;;;;;20.72;23.84;98447.84;5076944;28;20043;-47
2023/03/18 11:07:04;;;;;;;14.57;8.95;;;;;;;21.49;23.44;98442.16;5095212;28;20393;-47
2023/03/18 11:09:38;;;;;;;13.70;8.45;;;;;;;22.14;22.57;98443.78;5012858;28;20038;-47
2023/03/18 11:12:30;;;;;;;16.38;7.90;;;;;;;22.52;21.17;98446.63;5012918;28;20030;-47
2023/03/18 11:14:56;;;;;;;15.60;8.93;;;;;;;22.36;21.50;98451.34;5012800;28;20041;-47
2023/03/18 11:17:34;;;;;;;12.52;7.75;;;;;;;21.88;21.62;98440.53;5012739;28;20018;-47
2023/03/18 11:20:15;;;;;;;12.13;6.93;;;;;;;21.93;21.82;98443.16;5012532;28;20034;-47
2023/03/18 11:22:46;;;;;;;10.10;7.50;;;;;;;22.26;21.73;98438.06;5012657;28;20083;-47
2023/03/18 11:25:28;;;;;;;13.23;7.28;;;;;;;22.51;21.10;98437.78;5012519;28;20037;-47
2023/03/18 11:28:02;;;;;;;11.38;7.20;;;;;;;22.12;21.37;98425.34;5012475;28;20042;-47
2023/03/18 11:30:34;;;;;;;11.52;7.10;;;;;;;22.53;21.04;98414.22;5012579;28;20073;-47
2023/03/18 11:33:09;;;;;;;10.13;6.80;;;;;;;23.06;21.04;98428.59;5012492;28;20072;-47
2023/03/18 11:35:52;;;;;;;10.93;6.75;;;;;;;23.80;20.73;98420.00;5012442;28;20088;-47